Virtual Norwegian is not affiliated with Norwegian Air Shuttle in any way.
If you are looking for the real "Norwegian", or you wish to book Norwegian flights, please visit Norwegian.com


We use cookies to ensure you get the best experience on our website.   ACCEPT

KSEA - SEA - Seattle (Seattle Tacoma Intl)

General Info Alternate Airport
ICAO: KSEA Elevation: 433 ft ICAO: KPAE
IATA: SEA Country: United States IATA: PAE
City: Seattle Charts: Log in to view charts City: Everett
Name: Seattle Tacoma Intl Hub: No Name Snohomish Co
General Info
ICAO: KSEA
IATA: SEA
City: Seattle
Name: Seattle Tacoma Intl
Elevation: 433 ft
Country: United States
Charts: Log in to view charts
Hub: No
 
Alternate Airport
ICAO: KPAE
IATA: PAE
City: Everett
Name: Snohomish Co

Weather
212153Z 24007KT 10SM OVC028 18/12 A3009 RMK AO2 SLP196 T01830117
Weather
212153Z 24007KT 10SM OVC028 18/12 A3009 RMK AO2 SLP196 T01830117

NOTAMs
NOTAMs currently unavailable.
NOTAMs
NOTAMs currently unavailable

Route map
Airport
Airport (hub)